Time;durP1;ratioP1;P1;durP2;ratioP2;P2;SDS_P1;SDS_P2;PMS_P1;PMS_P2;Temp;Humidity;BMP_temperature;BMP_pressure;BME280_temperature;BME280_humidity;BME280_pressure;Samples;Min_cycle;Max_cycle;Signal;HPM_P1;HPM_P2
2022/04/22 00:00:45;;;;;;;;;;;;;;;7.42;64.38;101062.22;5042169;28;19916;-71
2022/04/22 00:03:10;;;;;;;;;;;;;;;7.47;64.12;101065.50;5039605;28;20052;-69
2022/04/22 00:05:35;;;;;;;;;;;;;;;7.48;64.17;101062.81;5037431;28;19920;-69
2022/04/22 00:08:01;;;;;;;;;;;;;;;7.43;64.41;101063.91;5040105;28;20022;-71
2022/04/22 00:10:27;;;;;;;;;;;;;;;7.41;64.14;101060.50;5038869;28;19921;-70
2022/04/22 00:12:52;;;;;;;;;;;;;;;7.41;64.54;101065.75;5041696;28;19999;-69
2022/04/22 00:15:18;;;;;;;;;;;;;;;7.46;63.96;101055.94;5041535;28;19921;-70
2022/04/22 00:17:43;;;;;;;;;;;;;;;7.46;64.32;101053.34;5041219;28;20326;-70
2022/04/22 00:20:11;;;;;;;;;;;;;;;7.45;63.96;101057.69;5038573;28;19924;-70
2022/04/22 00:22:37;;;;;;;;;;;;;;;7.44;63.91;101057.78;5028348;28;19995;-69
2022/04/22 00:25:03;;;;;;;;;;;;;;;7.44;64.15;101052.53;5040437;28;20377;-73
2022/04/22 00:27:28;;;;;;;;;;;;;;;7.44;63.93;101049.91;5041178;28;20665;-71
2022/04/22 00:29:53;;;;;;;;;;;;;;;7.37;63.96;101049.31;5040388;28;19982;-69
2022/04/22 00:32:19;;;;;;;;;;;;;;;7.31;64.13;101049.53;5039269;28;19923;-70
2022/04/22 00:34:45;;;;;;;;;;;;;;;7.27;64.10;101045.31;5021134;28;20408;-74
2022/04/22 00:37:10;;;;;;;;;;;;;;;7.24;64.63;101042.84;5038976;28;20502;-73
2022/04/22 00:39:35;;;;;;;;;;;;;;;7.20;64.36;101047.31;5041363;28;19944;-73
2022/04/22 00:42:08;;;;;;;;;;;;;;;7.16;64.62;101043.16;5040429;28;19990;-70
2022/04/22 00:44:33;;;;;;;;;;;;;;;7.13;64.40;101046.72;5040559;28;19916;-70
2022/04/22 00:46:58;;;;;;;;;;;;;;;7.10;64.43;101046.00;5036222;28;19920;-74
2022/04/22 00:49:24;;;;;;;;;;;;;;;7.06;64.54;101045.25;5020927;28;20373;-71
2022/04/22 00:51:49;;;;;;;;;;;;;;;7.08;64.39;101026.88;5040454;28;20129;-71
2022/04/22 00:54:14;;;;;;;;;;;;;;;7.10;64.42;101031.16;5041264;28;19916;-72
2022/04/22 00:56:40;;;;;;;;;;;;;;;7.05;64.67;101032.22;5039599;28;19921;-71
2022/04/22 00:59:06;;;;;;;;;;;;;;;7.04;64.48;101025.28;5040603;28;19920;-71
2022/04/22 01:01:33;;;;;;;;;;;;;;;6.98;64.72;101027.22;5040230;28;19912;-71
2022/04/22 01:09:47;;;;;;;;;;;;;;;6.81;64.95;101030.47;5039668;28;20073;-71
2022/04/22 01:12:13;;;;;;;;;;;;;;;6.82;65.11;101026.94;5040124;28;19921;-71
2022/04/22 01:14:39;;;;;;;;;;;;;;;6.78;65.05;101029.75;5022421;28;19916;-70
2022/04/22 01:17:04;;;;;;;;;;;;;;;6.76;65.28;101023.72;5041307;28;20276;-71
2022/04/22 01:19:30;;;;;;;;;;;;;;;6.77;64.93;101018.44;5037153;28;19917;-70
2022/04/22 01:21:55;;;;;;;;;;;;;;;6.84;64.95;101011.22;5040881;28;19989;-72
2022/04/22 01:24:20;;;;;;;;;;;;;;;6.87;64.56;101008.50;5040793;28;20016;-72
2022/04/22 01:26:48;;;;;;;;;;;;;;;6.93;64.84;101003.00;5023305;28;19967;-72
2022/04/22 01:29:13;;;;;;;;;;;;;;;6.96;64.51;101007.25;5021804;28;19928;-73
2022/04/22 01:31:39;;;;;;;;;;;;;;;6.96;64.45;100999.41;5041077;28;19913;-70
2022/04/22 01:34:04;;;;;;;;;;;;;;;6.94;64.87;100999.47;5036640;28;19928;-71
2022/04/22 01:36:29;;;;;;;;;;;;;;;6.92;64.79;100995.22;5038962;28;19927;-71
2022/04/22 01:38:55;;;;;;;;;;;;;;;6.94;64.82;100994.25;5038327;28;19917;-70
2022/04/22 01:41:21;;;;;;;;;;;;;;;6.94;64.65;101004.72;5041832;28;19932;-71
2022/04/22 01:43:46;;;;;;;;;;;;;;;6.96;64.72;101002.91;5039928;28;20373;-71
2022/04/22 01:46:14;;;;;;;;;;;;;;;7.02;64.47;100996.56;5040855;28;19969;-71
2022/04/22 01:48:40;;;;;;;;;;;;;;;7.02;64.07;100988.72;5023897;28;19959;-71
2022/04/22 01:51:05;;;;;;;;;;;;;;;6.96;64.17;100987.19;5043960;28;19983;-70
2022/04/22 01:53:30;;;;;;;;;;;;;;;6.88;64.53;100993.63;5043255;28;19917;-70
2022/04/22 01:55:56;;;;;;;;;;;;;;;6.80;64.50;100986.94;5044806;28;20360;-71
2022/04/22 01:58:21;;;;;;;;;;;;;;;6.78;64.71;100987.88;5042510;28;19923;-71
2022/04/22 02:00:46;;;;;;;;;;;;;;;6.80;64.85;100988.69;5028005;28;19944;-71
2022/04/22 02:03:12;;;;;;;;;;;;;;;6.84;64.76;100987.66;5040559;28;19917;-72
2022/04/22 02:05:37;;;;;;;;;;;;;;;6.85;64.44;100992.81;5044790;28;19930;-71
2022/04/22 02:08:02;;;;;;;;;;;;;;;6.85;64.26;100978.91;5041145;28;20011;-71
2022/04/22 02:10:28;;;;;;;;;;;;;;;6.82;64.37;100986.88;5042121;28;20285;-71
2022/04/22 02:12:53;;;;;;;;;;;;;;;6.75;64.37;100978.41;5033667;28;19921;-73
2022/04/22 02:15:20;;;;;;;;;;;;;;;6.70;64.92;100981.19;5039270;28;19971;-71
2022/04/22 02:17:45;;;;;;;;;;;;;;;6.60;65.11;100990.28;5037595;28;19921;-70
2022/04/22 02:20:11;;;;;;;;;;;;;;;6.50;65.41;100994.16;5043044;28;20325;-73
2022/04/22 02:22:37;;;;;;;;;;;;;;;6.45;64.92;100993.47;5040843;28;20392;-71
2022/04/22 02:25:02;;;;;;;;;;;;;;;6.42;65.11;100994.44;5043317;28;20000;-71
2022/04/22 02:30:12;;;;;;;;;;;;;;;6.47;65.08;100987.28;5040630;28;19968;-69
2022/04/22 02:32:37;;;;;;;;;;;;;;;6.45;64.86;100980.38;5039129;28;20329;-71
2022/04/22 02:35:02;;;;;;;;;;;;;;;6.43;65.29;100985.69;5041073;28;19955;-69
2022/04/22 02:37:28;;;;;;;;;;;;;;;6.40;65.21;100988.41;5041533;28;19959;-71
2022/04/22 02:39:53;;;;;;;;;;;;;;;6.43;65.41;100982.22;5041891;28;19960;-69
2022/04/22 02:47:46;;;;;;;;;;;;;;;6.44;65.12;100970.84;5038599;28;20384;-71
2022/04/22 02:50:11;;;;;;;;;;;;;;;6.46;64.96;100971.63;5042063;28;19924;-71
2022/04/22 02:52:36;;;;;;;;;;;;;;;6.44;64.81;100968.22;5041061;28;19971;-70
2022/04/22 02:55:01;;;;;;;;;;;;;;;6.40;65.15;100967.50;5041844;28;19974;-73
2022/04/22 02:57:27;;;;;;;;;;;;;;;6.39;65.39;100971.00;5042947;28;19924;-70
2022/04/22 02:59:53;;;;;;;;;;;;;;;6.38;65.24;100961.47;5042946;28;20799;-69
2022/04/22 03:02:18;;;;;;;;;;;;;;;6.33;65.17;100955.56;5038786;28;19931;-70
2022/04/22 03:04:44;;;;;;;;;;;;;;;6.29;65.21;100954.81;5039967;28;19917;-69
2022/04/22 03:07:09;;;;;;;;;;;;;;;6.25;66.08;100961.06;5041479;28;19921;-70
2022/04/22 03:09:34;;;;;;;;;;;;;;;6.19;66.05;100964.78;5042323;28;20033;-71
2022/04/22 03:11:59;;;;;;;;;;;;;;;6.15;65.85;100962.28;5041828;28;19936;-69
2022/04/22 03:14:25;;;;;;;;;;;;;;;6.14;65.82;100950.13;5025778;28;19924;-71
2022/04/22 03:16:50;;;;;;;;;;;;;;;6.13;66.14;100936.22;5036585;28;21191;-71
2022/04/22 03:19:15;;;;;;;;;;;;;;;6.19;66.15;100937.78;5040842;28;19963;-71
2022/04/22 03:21:41;;;;;;;;;;;;;;;6.27;65.53;100940.09;5040471;28;19962;-70
2022/04/22 03:24:07;;;;;;;;;;;;;;;6.25;65.92;100946.25;5039216;28;19928;-71
2022/04/22 03:26:32;;;;;;;;;;;;;;;6.24;66.19;100952.38;5039256;28;19954;-69
2022/04/22 03:28:58;;;;;;;;;;;;;;;6.24;66.23;100962.81;5042820;28;19921;-73
2022/04/22 03:31:23;;;;;;;;;;;;;;;6.23;66.70;100957.66;5039075;28;19923;-71
2022/04/22 03:33:49;;;;;;;;;;;;;;;6.21;66.49;100975.16;5036450;28;19920;-70
2022/04/22 03:36:14;;;;;;;;;;;;;;;6.21;66.20;100967.31;5041110;28;19951;-71
2022/04/22 03:38:40;;;;;;;;;;;;;;;6.21;66.10;100969.94;5023719;28;19975;-71
2022/04/22 03:41:05;;;;;;;;;;;;;;;6.19;66.14;100975.22;5038772;28;20015;-69
2022/04/22 03:43:30;;;;;;;;;;;;;;;6.15;66.16;100970.13;5040728;28;20511;-70
2022/04/22 03:45:56;;;;;;;;;;;;;;;6.13;65.92;100964.09;5040295;28;20348;-70
2022/04/22 03:48:21;;;;;;;;;;;;;;;6.10;65.80;100981.63;5039681;28;19960;-70
2022/04/22 03:50:47;;;;;;;;;;;;;;;6.15;65.93;100988.41;5040404;28;19925;-69
2022/04/22 03:53:12;;;;;;;;;;;;;;;6.19;65.76;100982.19;5041314;28;19913;-70
2022/04/22 03:55:38;;;;;;;;;;;;;;;6.22;65.76;100980.31;5042263;28;19924;-70
2022/04/22 03:58:13;;;;;;;;;;;;;;;6.23;65.92;100973.34;5040074;28;20293;-69
2022/04/22 04:00:42;;;;;;;;;;;;;;;6.24;65.60;100969.81;5038839;28;19971;-71
2022/04/22 04:03:11;;;;;;;;;;;;;;;6.17;65.48;100970.94;5039131;28;19917;-70
2022/04/22 04:05:37;;;;;;;;;;;;;;;6.13;65.62;100979.78;5039650;28;19999;-69
2022/04/22 04:08:02;;;;;;;;;;;;;;;6.16;65.57;100969.22;5039414;28;19916;-70
2022/04/22 04:15:59;;;;;;;;;;;;;;;6.07;66.28;100981.72;5037068;28;19978;-69
2022/04/22 04:18:31;;;;;;;;;;;;;;;6.07;66.13;100978.25;5040033;28;19916;-70
2022/04/22 04:23:41;;;;;;;;;;;;;;;6.09;66.72;100972.06;5042671;28;19951;-72
2022/04/22 04:26:07;;;;;;;;;;;;;;;6.17;66.03;100968.31;5040374;28;19921;-72
2022/04/22 04:28:33;;;;;;;;;;;;;;;6.19;65.91;100964.78;5041629;28;19971;-69
2022/04/22 04:30:58;;;;;;;;;;;;;;;6.19;66.06;100969.13;5041307;28;20315;-71
2022/04/22 04:33:24;;;;;;;;;;;;;;;6.21;66.06;100967.31;5036826;28;19921;-71
2022/04/22 04:35:50;;;;;;;;;;;;;;;6.24;66.49;100969.81;5022997;28;20444;-71
2022/04/22 04:38:16;;;;;;;;;;;;;;;6.25;66.21;100984.59;5023729;28;20280;-71
2022/04/22 04:40:42;;;;;;;;;;;;;;;6.28;66.14;100978.41;5039185;28;19959;-70
2022/04/22 04:43:07;;;;;;;;;;;;;;;6.36;66.13;100981.56;5039248;28;19924;-72
2022/04/22 04:45:33;;;;;;;;;;;;;;;6.45;66.39;100972.53;5038473;28;19960;-71
2022/04/22 04:47:58;;;;;;;;;;;;;;;6.52;65.85;100976.66;5038552;28;19928;-70
2022/04/22 04:50:24;;;;;;;;;;;;;;;6.53;66.10;100952.22;5039929;28;19931;-70
2022/04/22 04:52:49;;;;;;;;;;;;;;;6.53;66.13;100954.84;5039929;28;20348;-71
2022/04/22 04:55:14;;;;;;;;;;;;;;;6.55;66.08;100968.69;5020062;28;19921;-71
2022/04/22 04:57:41;;;;;;;;;;;;;;;6.49;66.30;100980.25;5039351;28;20734;-70
2022/04/22 05:00:08;;;;;;;;;;;;;;;6.49;66.52;100953.22;5037264;28;19924;-73
2022/04/22 05:02:33;;;;;;;;;;;;;;;6.54;66.38;100954.75;5038323;28;19920;-71
2022/04/22 05:04:59;;;;;;;;;;;;;;;6.56;66.03;100967.78;5041924;28;20400;-71
2022/04/22 05:07:24;;;;;;;;;;;;;;;6.54;66.18;100960.00;5038434;28;19939;-70
2022/04/22 05:09:49;;;;;;;;;;;;;;;6.58;66.27;100952.88;5040874;28;19925;-69
2022/04/22 05:12:15;;;;;;;;;;;;;;;6.67;66.29;100959.53;5022153;28;19939;-69
2022/04/22 05:14:40;;;;;;;;;;;;;;;6.74;66.09;100970.59;5039191;28;19920;-72
2022/04/22 05:17:05;;;;;;;;;;;;;;;6.75;66.51;100957.47;5037026;28;19959;-71
2022/04/22 05:19:31;;;;;;;;;;;;;;;6.79;66.60;100976.53;5036955;28;19924;-71
2022/04/22 05:21:56;;;;;;;;;;;;;;;6.77;67.00;100986.19;5043979;28;19921;-72
2022/04/22 05:24:22;;;;;;;;;;;;;;;6.69;67.71;100978.63;5043527;28;19944;-70
2022/04/22 05:26:47;;;;;;;;;;;;;;;6.66;67.51;100979.59;5044402;28;19966;-71
2022/04/22 05:34:41;;;;;;;;;;;;;;;6.68;67.36;100985.63;5044321;28;20427;-71
2022/04/22 05:37:07;;;;;;;;;;;;;;;6.66;67.96;100977.00;5044551;28;19917;-71
2022/04/22 05:39:33;;;;;;;;;;;;;;;6.71;67.65;100977.69;5043343;28;19925;-71
2022/04/22 05:42:01;;;;;;;;;;;;;;;6.75;68.14;100988.88;5040676;28;19921;-71
2022/04/22 05:44:27;;;;;;;;;;;;;;;6.81;67.52;100987.78;5042543;28;19960;-71
2022/04/22 05:46:52;;;;;;;;;;;;;;;6.89;67.63;100985.72;5037856;28;20066;-69
2022/04/22 05:49:18;;;;;;;;;;;;;;;6.93;67.26;100994.31;5023159;28;19924;-74
2022/04/22 05:51:43;;;;;;;;;;;;;;;6.91;68.01;100996.97;5043001;28;20020;-71
2022/04/22 05:54:08;;;;;;;;;;;;;;;6.91;67.93;100983.88;5043515;28;19921;-70
2022/04/22 05:56:34;;;;;;;;;;;;;;;7.00;67.92;100994.03;5043517;28;19917;-69
2022/04/22 05:58:59;;;;;;;;;;;;;;;7.06;67.43;100992.06;5044303;28;19916;-71
2022/04/22 06:01:24;;;;;;;;;;;;;;;7.12;67.72;100991.84;5042594;28;19917;-71
2022/04/22 06:03:50;;;;;;;;;;;;;;;7.14;68.10;100979.53;5041784;28;20416;-71
2022/04/22 06:06:15;;;;;;;;;;;;;;;7.21;67.59;100973.13;5042505;28;20007;-71
2022/04/22 06:11:24;;;;;;;;;;;;;;;7.35;67.40;100976.97;5042156;28;19936;-70
2022/04/22 06:13:49;;;;;;;;;;;;;;;7.43;67.30;100969.66;5043913;28;19913;-72
2022/04/22 06:16:15;;;;;;;;;;;;;;;7.54;66.95;100977.91;5041338;28;19917;-71
2022/04/22 06:18:40;;;;;;;;;;;;;;;7.61;66.97;100968.91;5041939;28;20262;-70
2022/04/22 06:21:05;;;;;;;;;;;;;;;7.70;66.67;100977.28;5042858;28;20058;-72
2022/04/22 06:23:31;;;;;;;;;;;;;;;7.78;66.84;100981.28;5040483;28;19971;-71
2022/04/22 06:25:56;;;;;;;;;;;;;;;7.87;66.92;100984.41;5042116;28;19956;-69
2022/04/22 06:28:22;;;;;;;;;;;;;;;7.93;66.65;100979.78;5042726;28;19924;-69
2022/04/22 06:30:48;;;;;;;;;;;;;;;7.97;66.97;100979.63;5039204;28;19971;-71
2022/04/22 06:33:14;;;;;;;;;;;;;;;7.99;67.26;100983.91;5037311;28;20410;-69
2022/04/22 06:35:39;;;;;;;;;;;;;;;8.04;67.22;100978.47;5040526;28;19916;-71
2022/04/22 06:38:07;;;;;;;;;;;;;;;8.09;67.06;100979.13;5030905;28;19923;-70
2022/04/22 06:46:00;;;;;;;;;;;;;;;8.21;67.22;100975.09;5029763;28;19927;-70
2022/04/22 06:48:34;;;;;;;;;;;;;;;8.20;67.68;100966.41;5036808;28;19925;-71
2022/04/22 06:51:00;;;;;;;;;;;;;;;8.22;67.46;100972.44;5037334;28;20635;-69
2022/04/22 06:53:26;;;;;;;;;;;;;;;8.26;67.60;100969.66;5029197;28;19921;-70
2022/04/22 06:55:53;;;;;;;;;;;;;;;8.31;67.59;100973.78;5041309;28;19921;-70
2022/04/22 06:58:19;;;;;;;;;;;;;;;8.39;67.48;100965.59;5038983;28;20395;-70
2022/04/22 07:00:45;;;;;;;;;;;;;;;8.47;67.69;100979.19;5024333;28;20437;-70
2022/04/22 07:03:11;;;;;;;;;;;;;;;8.53;67.58;100973.72;5040266;28;19917;-71
2022/04/22 07:05:37;;;;;;;;;;;;;;;8.65;67.55;100971.44;5020977;28;20376;-69
2022/04/22 07:08:05;;;;;;;;;;;;;;;8.78;67.58;100969.94;5042466;28;19913;-70
2022/04/22 07:10:31;;;;;;;;;;;;;;;8.89;67.34;100969.47;5043581;28;19913;-70
2022/04/22 07:12:57;;;;;;;;;;;;;;;9.02;67.07;100977.56;5040066;28;20059;-71
2022/04/22 07:15:22;;;;;;;;;;;;;;;9.13;67.19;100971.81;5040653;28;19912;-70
2022/04/22 07:17:48;;;;;;;;;;;;;;;9.23;67.09;100973.06;5041333;28;19956;-72
2022/04/22 07:20:13;;;;;;;;;;;;;;;9.30;67.00;100971.88;5019817;28;20333;-72
2022/04/22 07:22:42;;;;;;;;;;;;;;;9.40;67.01;100964.38;5034042;28;19960;-70
2022/04/22 07:25:09;;;;;;;;;;;;;;;9.51;66.71;100968.25;5040901;28;20357;-70
2022/04/22 07:27:36;;;;;;;;;;;;;;;9.60;66.73;100966.03;5039040;28;19935;-72
2022/04/22 07:30:03;;;;;;;;;;;;;;;9.72;66.70;100964.56;5041827;28;19925;-72
2022/04/22 07:32:29;;;;;;;;;;;;;;;9.85;66.75;100958.69;5042731;28;19936;-72
2022/04/22 07:34:54;;;;;;;;;;;;;;;9.98;66.65;100949.22;5038815;28;19924;-70
2022/04/22 07:37:20;;;;;;;;;;;;;;;10.11;66.40;100944.19;5038424;28;19943;-72
2022/04/22 07:39:46;;;;;;;;;;;;;;;10.23;66.39;100942.66;5037709;28;19929;-71
2022/04/22 07:42:17;;;;;;;;;;;;;;;10.36;66.38;100941.06;5041251;28;19916;-72
2022/04/22 07:47:30;;;;;;;;;;;;;;;10.66;65.83;100936.91;5037434;28;19954;-71
2022/04/22 07:49:55;;;;;;;;;;;;;;;10.78;65.67;100927.50;5033999;28;20406;-70
2022/04/22 07:52:20;;;;;;;;;;;;;;;10.92;65.68;100935.47;5015087;28;20005;-72
2022/04/22 07:54:46;;;;;;;;;;;;;;;11.06;65.34;100932.03;5040414;28;19932;-71
2022/04/22 07:57:11;;;;;;;;;;;;;;;11.19;65.04;100929.56;5041303;28;19924;-71
2022/04/22 07:59:37;;;;;;;;;;;;;;;11.32;65.05;100932.34;5040679;28;20377;-71
2022/04/22 08:02:03;;;;;;;;;;;;;;;11.46;64.76;100928.88;5038816;28;19920;-71
2022/04/22 08:04:28;;;;;;;;;;;;;;;11.57;64.72;100926.47;5036861;28;19916;-71
2022/04/22 08:06:53;;;;;;;;;;;;;;;11.72;64.41;100923.88;5038797;28;19944;-71
2022/04/22 08:09:19;;;;;;;;;;;;;;;11.85;64.37;100930.13;5024750;28;19960;-72
2022/04/22 08:11:44;;;;;;;;;;;;;;;12.00;63.98;100923.09;5039928;28;20332;-71
2022/04/22 08:14:12;;;;;;;;;;;;;;;12.14;63.76;100927.53;5035341;28;19945;-70
2022/04/22 08:16:38;;;;;;;;;;;;;;;12.26;63.59;100928.53;5039329;28;20018;-70
2022/04/22 08:19:03;;;;;;;;;;;;;;;12.41;63.48;100923.25;5039409;28;19971;-73
2022/04/22 08:21:33;;;;;;;;;;;;;;;12.50;63.08;100920.88;5038493;28;19923;-70
2022/04/22 08:23:58;;;;;;;;;;;;;;;12.61;62.72;100919.38;5039780;28;19930;-71
2022/04/22 08:26:23;;;;;;;;;;;;;;;12.69;62.73;100925.00;5038615;28;20408;-71
2022/04/22 08:28:49;;;;;;;;;;;;;;;12.78;62.25;100928.84;5039208;28;19926;-71
2022/04/22 08:31:16;;;;;;;;;;;;;;;12.84;62.27;100932.88;5017645;28;20371;-71
2022/04/22 08:33:45;;;;;;;;;;;;;;;12.89;62.04;100928.16;5022934;28;19925;-71
2022/04/22 08:36:11;;;;;;;;;;;;;;;12.97;61.97;100925.84;5036899;28;20029;-70
2022/04/22 08:38:36;;;;;;;;;;;;;;;13.03;61.75;100928.13;5039548;28;19913;-70
2022/04/22 08:41:02;;;;;;;;;;;;;;;13.09;61.93;100921.59;5039285;28;19931;-71
2022/04/22 08:43:28;;;;;;;;;;;;;;;13.15;61.46;100926.47;5037148;28;20275;-71
2022/04/22 08:45:54;;;;;;;;;;;;;;;13.21;60.99;100928.69;5040366;28;20385;-71
2022/04/22 08:51:04;;;;;;;;;;;;;;;13.33;60.62;100929.69;5039422;28;20407;-71
2022/04/22 08:53:31;;;;;;;;;;;;;;;13.40;59.99;100928.34;5036984;28;19944;-70
2022/04/22 08:55:57;;;;;;;;;;;;;;;13.50;59.98;100933.03;5036925;28;19938;-72
2022/04/22 08:58:24;;;;;;;;;;;;;;;13.54;59.84;100924.78;5039033;28;19917;-71
2022/04/22 09:00:50;;;;;;;;;;;;;;;13.60;59.55;100918.22;5036678;28;19916;-71
2022/04/22 09:03:15;;;;;;;;;;;;;;;13.63;59.43;100920.69;5037713;28;19982;-69
2022/04/22 09:05:40;;;;;;;;;;;;;;;13.67;59.31;100919.53;5039359;28;20373;-72
2022/04/22 09:08:06;;;;;;;;;;;;;;;13.71;59.03;100928.91;5038146;28;20367;-70
2022/04/22 09:10:32;;;;;;;;;;;;;;;13.76;58.74;100919.84;5038742;28;19935;-72
2022/04/22 09:12:58;;;;;;;;;;;;;;;13.80;57.85;100921.31;5020707;28;19917;-69
2022/04/22 09:15:27;;;;;;;;;;;;;;;13.83;57.42;100923.75;5036092;28;20030;-69
2022/04/22 09:18:00;;;;;;;;;;;;;;;13.83;57.65;100921.97;5027122;28;19920;-71
2022/04/22 09:20:33;;;;;;;;;;;;;;;13.84;57.53;100914.88;5039256;28;20022;-70
2022/04/22 09:22:58;;;;;;;;;;;;;;;13.87;57.40;100918.16;5037919;28;19921;-73
2022/04/22 09:25:25;;;;;;;;;;;;;;;13.92;56.37;100919.63;5037670;28;19979;-71
2022/04/22 09:27:51;;;;;;;;;;;;;;;13.95;56.35;100930.84;5038055;28;19947;-69
2022/04/22 09:30:17;;;;;;;;;;;;;;;14.00;56.53;100923.41;5039113;28;19928;-69
2022/04/22 09:32:43;;;;;;;;;;;;;;;14.07;56.20;100933.59;5032041;28;20274;-71
2022/04/22 09:35:10;;;;;;;;;;;;;;;14.10;56.02;100922.81;5039028;28;20305;-71
2022/04/22 09:43:21;;;;;;;;;;;;;;;14.16;55.11;100923.22;5037714;28;19923;-70
2022/04/22 09:45:46;;;;;;;;;;;;;;;14.19;55.11;100922.16;5036082;28;20285;-71
2022/04/22 09:48:13;;;;;;;;;;;;;;;14.24;54.93;100920.03;5039415;28;19921;-70
2022/04/22 09:50:40;;;;;;;;;;;;;;;14.27;54.41;100925.13;5039292;28;20008;-69
2022/04/22 09:53:06;;;;;;;;;;;;;;;14.29;54.67;100907.28;5037678;28;20272;-68
2022/04/22 09:55:34;;;;;;;;;;;;;;;14.33;54.74;100924.66;5038541;28;20226;-71
2022/04/22 09:58:00;;;;;;;;;;;;;;;14.38;54.55;100924.34;5026679;28;20502;-72
2022/04/22 10:00:30;;;;;;;;;;;;;;;14.42;54.13;100922.34;5032350;28;20103;-71
2022/04/22 10:02:56;;;;;;;;;;;;;;;14.44;53.60;100915.13;5034179;28;20012;-71
2022/04/22 10:05:23;;;;;;;;;;;;;;;14.46;53.85;100913.19;5037172;28;20246;-69
2022/04/22 10:07:52;;;;;;;;;;;;;;;14.50;53.70;100917.31;5020584;28;19916;-70
2022/04/22 10:10:24;;;;;;;;;;;;;;;14.53;53.75;100908.31;5041109;28;19920;-70
2022/04/22 10:12:52;;;;;;;;;;;;;;;14.53;53.09;100919.75;5034314;28;20599;-72
2022/04/22 10:15:19;;;;;;;;;;;;;;;14.55;53.15;100923.16;5031494;28;19927;-70
2022/04/22 10:17:44;;;;;;;;;;;;;;;14.57;53.24;100923.03;5040053;28;19917;-70
2022/04/22 10:20:10;;;;;;;;;;;;;;;14.57;53.18;100926.53;5039593;28;19921;-70
2022/04/22 10:22:36;;;;;;;;;;;;;;;14.58;53.22;100922.94;5041419;28;19943;-71
2022/04/22 10:25:07;;;;;;;;;;;;;;;14.59;53.44;100927.28;5024497;28;19921;-70
2022/04/22 10:27:37;;;;;;;;;;;;;;;14.61;53.38;100932.44;5042614;28;19924;-70
2022/04/22 10:30:02;;;;;;;;;;;;;;;14.59;53.14;100929.06;5041247;28;20413;-71
2022/04/22 10:32:28;;;;;;;;;;;;;;;14.57;53.61;100931.81;5041698;28;19923;-69
2022/04/22 10:34:57;;;;;;;;;;;;;;;14.55;53.50;100931.09;5043166;28;19912;-67
2022/04/22 10:37:24;;;;;;;;;;;;;;;14.52;53.37;100931.31;5041554;28;19921;-66
2022/04/22 10:39:51;;;;;;;;;;;;;;;14.48;53.48;100929.81;5041617;28;20221;-69
2022/04/22 10:42:16;;;;;;;;;;;;;;;14.46;53.66;100934.38;5041748;28;19913;-69
2022/04/22 10:47:41;;;;;;;;;;;;;;;14.38;53.72;100937.56;5042613;28;19916;-68
2022/04/22 10:50:23;;;;;;;;;;;;;;;14.34;53.62;100930.81;5041759;28;20329;-67
2022/04/22 10:53:04;;;;;;;;;;;;;;;14.28;53.80;100937.41;5041353;28;19959;-69
2022/04/22 10:55:30;;;;;;;;;;;;;;;14.25;53.86;100937.59;5041699;28;19988;-68
2022/04/22 10:58:13;;;;;;;;;;;;;;;14.21;53.79;100930.81;5042201;28;19913;-66
2022/04/22 11:00:42;;;;;;;;;;;;;;;14.18;54.12;100938.97;5038761;28;20003;-68
2022/04/22 11:03:13;;;;;;;;;;;;;;;14.16;53.88;100943.53;5040617;28;20261;-69
2022/04/22 11:05:42;;;;;;;;;;;;;;;14.14;54.08;100940.16;5042351;28;19920;-69
2022/04/22 11:08:16;;;;;;;;;;;;;;;14.12;54.04;100942.91;5042553;28;20210;-69
2022/04/22 11:10:44;;;;;;;;;;;;;;;14.11;54.18;100937.72;5041928;28;19920;-67
2022/04/22 11:13:25;;;;;;;;;;;;;;;14.12;54.23;100942.91;5038606;28;19921;-67
2022/04/22 11:15:51;;;;;;;;;;;;;;;14.15;54.22;100937.41;5041253;28;19921;-68
2022/04/22 11:18:17;;;;;;;;;;;;;;;14.18;53.97;100946.91;5042005;28;19920;-70
2022/04/22 11:20:50;;;;;;;;;;;;;;;14.24;54.15;100933.25;5041017;28;20385;-68
2022/04/22 11:23:15;;;;;;;;;;;;;;;14.34;53.70;100936.13;5039210;28;20319;-69
2022/04/22 11:25:42;;;;;;;;;;;;;;;14.44;53.92;100931.03;5041204;28;19920;-68
2022/04/22 11:28:08;;;;;;;;;;;;;;;14.53;53.88;100930.34;5041264;28;20006;-68
2022/04/22 11:30:34;;;;;;;;;;;;;;;14.59;53.60;100929.91;5025433;28;19952;-68
2022/04/22 11:33:08;;;;;;;;;;;;;;;14.61;53.68;100927.97;5040849;28;19952;-67
2022/04/22 11:35:33;;;;;;;;;;;;;;;14.63;53.57;100922.59;5042349;28;20007;-68
2022/04/22 11:38:00;;;;;;;;;;;;;;;14.66;53.60;100926.81;5042541;28;20011;-66
2022/04/22 11:40:25;;;;;;;;;;;;;;;14.66;53.48;100925.03;5041153;28;19913;-68
2022/04/22 11:42:54;;;;;;;;;;;;;;;14.69;53.67;100922.16;5040638;28;19943;-70
2022/04/22 11:45:19;;;;;;;;;;;;;;;14.73;53.57;100928.09;5040230;28;20036;-67
2022/04/22 11:47:45;;;;;;;;;;;;;;;14.76;53.38;100933.16;5041528;28;19999;-66
2022/04/22 11:50:17;;;;;;;;;;;;;;;14.78;53.32;100928.59;5042485;28;19924;-67
2022/04/22 11:52:43;;;;;;;;;;;;;;;14.78;53.27;100939.19;5039642;28;19928;-72
2022/04/22 11:55:08;;;;;;;;;;;;;;;14.74;53.40;100933.28;5042016;28;19921;-68
2022/04/22 11:57:35;;;;;;;;;;;;;;;14.75;53.22;100934.13;5022514;28;20011;-68
2022/04/22 12:05:32;;;;;;;;;;;;;;;14.73;53.11;100934.25;5039843;28;20379;-69
2022/04/22 12:08:05;;;;;;;;;;;;;;;14.76;53.36;100943.75;5041039;28;19917;-68
2022/04/22 12:10:31;;;;;;;;;;;;;;;14.81;53.20;100940.81;5040871;28;20420;-68
2022/04/22 12:13:00;;;;;;;;;;;;;;;14.84;53.07;100937.91;5040549;28;19917;-68
2022/04/22 12:15:26;;;;;;;;;;;;;;;14.86;53.08;100936.00;5038346;28;19927;-67
2022/04/22 12:17:52;;;;;;;;;;;;;;;14.87;52.95;100942.97;5038810;28;19996;-68
2022/04/22 12:20:18;;;;;;;;;;;;;;;14.88;52.84;100940.25;5039152;28;19917;-68
2022/04/22 12:22:43;;;;;;;;;;;;;;;14.87;52.74;100938.53;5038931;28;20345;-67
2022/04/22 12:25:13;;;;;;;;;;;;;;;14.86;52.63;100947.44;5039105;28;19925;-67
2022/04/22 12:27:39;;;;;;;;;;;;;;;14.84;52.43;100949.34;5039456;28;20287;-68
2022/04/22 12:30:11;;;;;;;;;;;;;;;14.77;52.80;100950.75;5012391;28;19924;-71
2022/04/22 12:32:37;;;;;;;;;;;;;;;14.68;52.57;100952.25;5039525;28;19913;-67
2022/04/22 12:35:09;;;;;;;;;;;;;;;14.62;52.93;100953.50;5039093;28;19920;-68
2022/04/22 12:37:34;;;;;;;;;;;;;;;14.57;52.85;100957.44;5040559;28;20222;-67
2022/04/22 12:40:07;;;;;;;;;;;;;;;14.51;53.00;100958.72;5039936;28;20369;-68
2022/04/22 12:42:35;;;;;;;;;;;;;;;14.47;52.98;100951.94;5041314;28;19999;-68
2022/04/22 12:53:29;;;;;;;;;;;;;;;14.38;53.14;100950.81;5038999;28;19924;-69
2022/04/22 12:55:58;;;;;;;;;;;;;;;14.40;52.97;100948.06;5040460;28;20316;-66
2022/04/22 12:58:23;;;;;;;;;;;;;;;14.44;53.02;100946.91;5025316;28;19921;-67
2022/04/22 13:00:50;;;;;;;;;;;;;;;14.48;53.00;100948.34;5040113;28;19927;-67
2022/04/22 13:03:16;;;;;;;;;;;;;;;14.53;53.01;100945.38;5038536;28;19971;-69
2022/04/22 13:05:41;;;;;;;;;;;;;;;14.58;52.96;100943.25;5036729;28;19995;-69
2022/04/22 13:08:10;;;;;;;;;;;;;;;14.63;52.79;100947.25;5039060;28;19920;-67
2022/04/22 13:10:36;;;;;;;;;;;;;;;14.69;52.66;100951.28;5028477;28;19927;-69
2022/04/22 13:13:01;;;;;;;;;;;;;;;14.77;52.62;100948.09;5039201;28;19916;-70
2022/04/22 13:15:26;;;;;;;;;;;;;;;14.82;52.53;100948.63;5038306;28;20016;-68
2022/04/22 13:17:53;;;;;;;;;;;;;;;14.89;52.48;100947.22;5040251;28;20376;-67
2022/04/22 13:20:19;;;;;;;;;;;;;;;14.98;52.48;100945.69;5039887;28;20288;-67
2022/04/22 13:22:45;;;;;;;;;;;;;;;15.05;52.22;100941.63;5039643;28;20293;-67
2022/04/22 13:25:11;;;;;;;;;;;;;;;15.12;52.24;100938.56;5037633;28;19923;-67
2022/04/22 13:27:39;;;;;;;;;;;;;;;15.19;51.95;100937.13;5039160;28;20373;-71
2022/04/22 13:30:05;;;;;;;;;;;;;;;15.26;51.93;100942.81;5038802;28;19921;-70
2022/04/22 13:32:31;;;;;;;;;;;;;;;15.31;51.87;100938.03;5040309;28;19917;-67
2022/04/22 13:34:56;;;;;;;;;;;;;;;15.36;51.72;100934.06;5039805;28;19989;-68
2022/04/22 13:37:21;;;;;;;;;;;;;;;15.41;51.57;100931.06;5039604;28;19956;-67
2022/04/22 13:39:47;;;;;;;;;;;;;;;15.43;51.62;100934.44;5040009;28;19955;-67
2022/04/22 13:42:12;;;;;;;;;;;;;;;15.42;51.49;100943.34;5039087;28;20385;-68